CGLLZ CYXU-CYTZ
Flight info
| Callsign | CGLLZ |
|---|---|
| Flight time | N/A |
| Altitude | 3000 |
| Route | |
| Aircraft | C172 |
Departure
| Time | 2026-04-19 16:17 |
|---|---|
| Airport | London International Airport (CYXU) |
Arrival
| Time | N/A |
|---|---|
| Airport | Billy Bishop Toronto City Airport (CYTZ) |
| Time | Latitude | Longitude | Altitude | Speed | Heading |
|---|---|---|---|---|---|
| 2026-04-19 16:09 | 43.03174 | -81.15292 | 917 ft | 0 kts | 314° |
| 2026-04-19 16:11 | 43.03175 | -81.15293 | 917 ft | 0 kts | 310° |
| 2026-04-19 16:11 | 43.03175 | -81.15294 | 917 ft | 0 kts | 305° |
| 2026-04-19 16:12 | 43.03189 | -81.15297 | 917 ft | 8 kts | 33° |
| 2026-04-19 16:12 | 43.03253 | -81.15189 | 916 ft | 11 kts | 78° |
| 2026-04-19 16:12 | 43.03203 | -81.15105 | 917 ft | 14 kts | 139° |
| 2026-04-19 16:12 | 43.03121 | -81.15008 | 916 ft | 13 kts | 137° |
| 2026-04-19 16:13 | 43.03049 | -81.14905 | 916 ft | 10 kts | 135° |
| 2026-04-19 16:13 | 43.02975 | -81.14808 | 917 ft | 18 kts | 133° |
| 2026-04-19 16:13 | 43.02888 | -81.14713 | 916 ft | 13 kts | 136° |
| 2026-04-19 16:13 | 43.02797 | -81.14597 | 917 ft | 21 kts | 141° |
| 2026-04-19 16:14 | 43.02699 | -81.14487 | 917 ft | 19 kts | 137° |
| 2026-04-19 16:14 | 43.02596 | -81.14361 | 917 ft | 20 kts | 141° |
| 2026-04-19 16:14 | 43.02500 | -81.14244 | 917 ft | 18 kts | 137° |
| 2026-04-19 16:14 | 43.02389 | -81.14111 | 917 ft | 17 kts | 142° |
| 2026-04-19 16:15 | 43.02322 | -81.14031 | 917 ft | 15 kts | 139° |
| 2026-04-19 16:15 | 43.02337 | -81.13949 | 917 ft | 4 kts | 41° |
| 2026-04-19 16:15 | 43.02367 | -81.13898 | 917 ft | 10 kts | 52° |
| 2026-04-19 16:15 | 43.02426 | -81.13852 | 917 ft | 0 kts | 335° |
| 2026-04-19 16:16 | 43.02507 | -81.13939 | 917 ft | 36 kts | 319° |
| 2026-04-19 16:16 | 43.02784 | -81.14265 | 979 ft | 57 kts | 313° |
| 2026-04-19 16:16 | 43.03077 | -81.14584 | 1168 ft | 52 kts | 312° |
| 2026-04-19 16:16 | 43.03395 | -81.14903 | 1263 ft | 64 kts | 314° |
| 2026-04-19 16:17 | 43.03787 | -81.15318 | 1373 ft | 74 kts | 315° |
| 2026-04-19 16:17 | 43.04200 | -81.15790 | 1508 ft | 79 kts | 313° |
| 2026-04-19 16:17 | 43.04701 | -81.16090 | 1639 ft | 86 kts | 346° |
| 2026-04-19 16:17 | 43.05268 | -81.15762 | 1812 ft | 94 kts | 25° |
| 2026-04-19 16:18 | 43.05610 | -81.14929 | 1988 ft | 105 kts | 62° |
| 2026-04-19 16:18 | 43.05841 | -81.13989 | 2149 ft | 106 kts | 60° |
| 2026-04-19 16:18 | 43.06073 | -81.13007 | 2276 ft | 110 kts | 59° |
| 2026-04-19 16:18 | 43.06310 | -81.12009 | 2406 ft | 110 kts | 60° |
| 2026-04-19 16:19 | 43.06541 | -81.11037 | 2533 ft | 106 kts | 63° |
| 2026-04-19 16:19 | 43.06739 | -81.10064 | 2675 ft | 106 kts | 66° |
| 2026-04-19 16:19 | 43.06916 | -81.09100 | 2817 ft | 102 kts | 65° |
| 2026-04-19 16:19 | 43.07093 | -81.08160 | 2940 ft | 103 kts | 65° |
| 2026-04-19 16:20 | 43.07282 | -81.07172 | 2970 ft | 113 kts | 65° |
| 2026-04-19 16:20 | 43.07502 | -81.06107 | 2968 ft | 120 kts | 65° |
| 2026-04-19 16:20 | 43.07738 | -81.04984 | 2968 ft | 123 kts | 66° |
| 2026-04-19 16:20 | 43.07962 | -81.03866 | 2952 ft | 122 kts | 67° |
| 2026-04-19 16:21 | 43.08185 | -81.02767 | 2961 ft | 118 kts | 66° |
| 2026-04-19 16:21 | 43.08396 | -81.01681 | 2956 ft | 115 kts | 66° |
| 2026-04-19 16:21 | 43.08606 | -81.00627 | 2958 ft | 114 kts | 64° |
| 2026-04-19 16:21 | 43.08808 | -80.99591 | 2946 ft | 113 kts | 65° |